createdAt,value
2022-10-22T00:00:57.103Z,98917.53
2022-10-22T00:03:23.885Z,98926.09
2022-10-22T00:05:50.355Z,98920.72
2022-10-22T00:08:16.897Z,98924.19
2022-10-22T00:10:43.562Z,98927.66
2022-10-22T00:13:11.161Z,98928.28
2022-10-22T00:15:37.669Z,98938.56
2022-10-22T00:18:04.244Z,98937.44
2022-10-22T00:20:31.109Z,98926.31
2022-10-22T00:22:57.716Z,98934.97
2022-10-22T00:25:24.268Z,98940.78
2022-10-22T00:27:50.740Z,98944.34
2022-10-22T00:30:17.192Z,98950.25
2022-10-22T00:32:43.775Z,98936.50
2022-10-22T00:35:10.281Z,98945.22
2022-10-22T00:37:36.822Z,98938.47
2022-10-22T00:40:04.201Z,98948.47
2022-10-22T00:42:30.681Z,98947.59
2022-10-22T00:45:07.080Z,98933.94
2022-10-22T00:47:46.897Z,98934.25
2022-10-22T00:50:23.733Z,98934.19
2022-10-22T00:52:50.770Z,98936.03
2022-10-22T00:55:18.393Z,98944.53
2022-10-22T00:57:45.085Z,98953.72
2022-10-22T01:00:12.128Z,98949.44
2022-10-22T01:02:39.496Z,98946.25
2022-10-22T01:05:07.006Z,98944.56
2022-10-22T01:07:37.724Z,98937.69
2022-10-22T01:10:28.605Z,98939.19
2022-10-22T01:13:05.682Z,98942.03
2022-10-22T01:15:55.264Z,98947.13
2022-10-22T01:18:43.802Z,98956.03
2022-10-22T01:21:32.136Z,98955.22
2022-10-22T01:24:08.012Z,98955.34
2022-10-22T01:26:55.641Z,98952.63
2022-10-22T01:29:50.016Z,98962.31
2022-10-22T01:32:19.785Z,98961.34
2022-10-22T01:34:50.734Z,98981.31
2022-10-22T01:37:18.203Z,98984.81
2022-10-22T01:39:46.501Z,98971.56
2022-10-22T01:42:14.920Z,98964.63
2022-10-22T01:44:41.674Z,98963.88
2022-10-22T01:47:26.027Z,98954.00
2022-10-22T01:50:09.175Z,98944.81
2022-10-22T01:52:40.104Z,98937.63
2022-10-22T01:55:42.032Z,98967.78
2022-10-22T01:58:28.665Z,98974.34
2022-10-22T02:01:10.308Z,98973.78
2022-10-22T02:03:41.503Z,98981.56
2022-10-22T02:06:14.319Z,98978.16
2022-10-22T02:08:41.329Z,98972.97
2022-10-22T02:11:07.998Z,98973.72
2022-10-22T02:13:39.218Z,98972.44
2022-10-22T02:16:08.398Z,98964.75
2022-10-22T02:18:38.893Z,98969.16
2022-10-22T02:21:09.760Z,98978.34
2022-10-22T02:23:36.613Z,98973.22
2022-10-22T02:26:37.365Z,98979.44
2022-10-22T02:29:12.580Z,98973.97
2022-10-22T02:31:40.933Z,98976.75
2022-10-22T02:34:11.091Z,98984.28
2022-10-22T02:36:44.447Z,98986.97
2022-10-22T02:39:13.709Z,98989.34
2022-10-22T02:41:40.537Z,98997.94
2022-10-22T02:44:09.724Z,99001.03
2022-10-22T02:46:37.366Z,98998.63
2022-10-22T02:49:04.231Z,98992.31
2022-10-22T02:51:30.722Z,98997.50
2022-10-22T02:53:57.196Z,98996.28
2022-10-22T02:56:23.665Z,99006.06
2022-10-22T02:58:50.277Z,99013.66
2022-10-22T03:01:16.814Z,99016.00
2022-10-22T03:03:43.370Z,99008.25
2022-10-22T03:06:09.861Z,99006.69
2022-10-22T03:08:36.324Z,99012.59
2022-10-22T03:11:02.823Z,99019.94
2022-10-22T03:13:29.525Z,99026.13
2022-10-22T03:15:55.964Z,99021.22
2022-10-22T03:18:22.423Z,99034.00
2022-10-22T03:20:48.982Z,99039.22
2022-10-22T03:23:17.556Z,99034.59
2022-10-22T03:25:45.173Z,99040.88
2022-10-22T03:28:14.169Z,99046.69
2022-10-22T03:30:40.736Z,99046.34
2022-10-22T03:33:07.202Z,99057.78
2022-10-22T03:35:39.620Z,99052.09
2022-10-22T03:38:06.173Z,99055.00
2022-10-22T03:40:32.640Z,99062.31
2022-10-22T03:42:59.141Z,99070.03
2022-10-22T03:45:25.688Z,99070.25
2022-10-22T03:47:52.172Z,99075.47
2022-10-22T03:50:18.769Z,99081.00
2022-10-22T03:52:45.193Z,99082.47
2022-10-22T03:55:11.652Z,99066.53
2022-10-22T03:57:38.385Z,99066.91
2022-10-22T04:00:06.731Z,99073.25
2022-10-22T04:02:33.220Z,99068.03
2022-10-22T04:04:59.808Z,99074.22
2022-10-22T04:07:26.460Z,99083.03
2022-10-22T04:09:52.894Z,99083.91
2022-10-22T04:12:19.392Z,99081.75
2022-10-22T04:14:45.983Z,99085.41
2022-10-22T04:17:12.512Z,99096.63
2022-10-22T04:19:39.360Z,99087.56
2022-10-22T04:22:48.827Z,99100.09
2022-10-22T04:25:15.987Z,99091.47
2022-10-22T04:27:42.922Z,99083.97
2022-10-22T04:30:10.073Z,99086.75
2022-10-22T04:32:36.584Z,99089.97
2022-10-22T04:35:03.307Z,99091.91
2022-10-22T04:37:29.792Z,99095.81
2022-10-22T04:39:58.143Z,99106.13
2022-10-22T04:42:24.976Z,99112.47
2022-10-22T04:44:51.469Z,99115.84
2022-10-22T04:47:17.978Z,99115.84
2022-10-22T04:49:44.504Z,99119.06
2022-10-22T04:52:12.573Z,99118.38
2022-10-22T04:54:39.439Z,99114.22
2022-10-22T04:57:06.070Z,99111.16
2022-10-22T04:59:32.552Z,99111.97
2022-10-22T05:01:59.080Z,99111.47
2022-10-22T05:04:25.593Z,99101.03
2022-10-22T05:06:52.669Z,99100.06
2022-10-22T05:09:20.327Z,99108.19
2022-10-22T05:11:49.147Z,99103.06
2022-10-22T05:14:21.296Z,99107.59
2022-10-22T05:16:48.864Z,99108.94
2022-10-22T05:19:19.292Z,99109.47
2022-10-22T05:21:45.870Z,99117.09
2022-10-22T05:24:13.122Z,99110.28
2022-10-22T05:26:39.652Z,99113.03
2022-10-22T05:29:06.369Z,99114.41
2022-10-22T05:31:32.946Z,99121.13
2022-10-22T05:33:59.480Z,99120.22
2022-10-22T05:36:26.047Z,99128.88
2022-10-22T05:38:52.763Z,99128.56
2022-10-22T05:41:21.806Z,99139.06
2022-10-22T05:43:48.649Z,99142.50
2022-10-22T05:46:22.810Z,99149.84
2022-10-22T05:48:56.137Z,99152.66
2022-10-22T05:51:24.281Z,99149.38
2022-10-22T05:53:53.050Z,99152.63
2022-10-22T05:56:19.698Z,99149.06
2022-10-22T05:58:46.438Z,99151.00
2022-10-22T06:01:15.607Z,99151.75
2022-10-22T06:03:42.503Z,99151.72
2022-10-22T06:06:22.060Z,99147.59
2022-10-22T06:08:49.948Z,99152.00
2022-10-22T06:11:17.924Z,99158.13
2022-10-22T06:13:45.458Z,99152.66
2022-10-22T06:16:12.065Z,99149.44
2022-10-22T06:18:38.599Z,99152.97
2022-10-22T06:21:10.408Z,99153.59
2022-10-22T06:23:38.808Z,99156.69
2022-10-22T06:26:06.362Z,99163.72
2022-10-22T06:28:33.545Z,99169.66
2022-10-22T06:31:01.291Z,99187.78
2022-10-22T06:33:28.617Z,99175.25
2022-10-22T06:35:55.260Z,99187.41
2022-10-22T06:38:23.911Z,99203.66
2022-10-22T06:40:50.348Z,99208.81
2022-10-22T06:43:16.829Z,99218.16
2022-10-22T06:45:43.395Z,99224.25
2022-10-22T06:48:57.202Z,99226.81
2022-10-22T06:51:45.547Z,99236.81
2022-10-22T06:54:12.195Z,99244.69
2022-10-22T06:56:38.761Z,99252.41
2022-10-22T06:59:05.233Z,99254.69
2022-10-22T07:01:33.336Z,99260.56
2022-10-22T07:04:00.544Z,99260.97
2022-10-22T07:06:28.189Z,99260.91
2022-10-22T07:08:56.383Z,99262.88
2022-10-22T07:11:25.320Z,99270.03
2022-10-22T07:13:54.472Z,99272.59
2022-10-22T07:16:21.003Z,99264.69
2022-10-22T07:18:47.931Z,99269.16
2022-10-22T07:21:16.257Z,99269.00
2022-10-22T07:23:43.485Z,99272.69
2022-10-22T07:26:11.018Z,99276.31
2022-10-22T07:28:39.900Z,99282.16
2022-10-22T07:31:08.173Z,99282.53
2022-10-22T07:33:34.983Z,99281.34
2022-10-22T07:36:06.938Z,99286.94
2022-10-22T07:38:33.984Z,99283.34
2022-10-22T07:41:01.143Z,99292.72
2022-10-22T07:43:27.647Z,99289.72
2022-10-22T07:45:55.926Z,99291.16
2022-10-22T07:48:23.480Z,99286.31
2022-10-22T07:50:51.322Z,99294.56
2022-10-22T07:53:18.225Z,99306.09
2022-10-22T07:55:48.293Z,99302.94
2022-10-22T07:58:18.672Z,99307.44
2022-10-22T08:00:45.488Z,99311.88
2022-10-22T08:03:13.079Z,99309.84
2022-10-22T08:05:52.435Z,99304.81
2022-10-22T08:08:19.216Z,99312.66
2022-10-22T08:10:47.586Z,99313.56
2022-10-22T08:13:17.518Z,99322.28
2022-10-22T08:18:11.505Z,99325.88
2022-10-22T08:20:38.024Z,99327.81
2022-10-22T08:23:04.520Z,99326.44
2022-10-22T08:25:36.279Z,99328.31
2022-10-22T08:28:02.865Z,99337.84
2022-10-22T08:30:29.827Z,99340.53
2022-10-22T08:32:59.008Z,99334.69
2022-10-22T08:35:25.566Z,99337.28
2022-10-22T08:38:00.940Z,99333.31
2022-10-22T08:40:38.519Z,99344.59
2022-10-22T08:43:45.453Z,99350.84
2022-10-22T08:47:29.236Z,99355.44
2022-10-22T08:49:58.472Z,99355.34
2022-10-22T08:52:36.542Z,99355.56
2022-10-22T08:55:03.746Z,99363.97
2022-10-22T08:57:35.964Z,99368.09
2022-10-22T09:00:07.309Z,99367.50
2022-10-22T09:02:59.937Z,99361.69
2022-10-22T09:05:55.870Z,99370.47
2022-10-22T09:08:23.247Z,99367.84
2022-10-22T09:14:49.357Z,99371.56
2022-10-22T09:17:37.847Z,99372.69
2022-10-22T09:20:23.917Z,99379.38
2022-10-22T09:23:19.369Z,99379.63
2022-10-22T09:26:13.109Z,99386.75
2022-10-22T09:28:40.136Z,99387.97
2022-10-22T09:31:14.230Z,99386.84
2022-10-22T09:33:42.445Z,99390.63
2022-10-22T09:36:13.686Z,99390.25
2022-10-22T09:38:45.258Z,99397.41
2022-10-22T09:41:11.950Z,99395.78
2022-10-22T09:43:38.446Z,99393.63
2022-10-22T09:46:07.243Z,99393.75
2022-10-22T09:48:39.822Z,99400.69
2022-10-22T09:51:07.780Z,99393.91
2022-10-22T09:53:58.385Z,99393.47
2022-10-22T09:56:26.063Z,99396.19
2022-10-22T09:58:52.640Z,99404.38
2022-10-22T10:01:23.120Z,99395.63
2022-10-22T10:03:50.299Z,99400.44
2022-10-22T10:06:21.557Z,99401.25
2022-10-22T10:08:48.610Z,99403.16
2022-10-22T10:11:28.797Z,99387.75
2022-10-22T10:14:07.855Z,99391.66
2022-10-22T10:16:43.424Z,99396.56
2022-10-22T10:19:43.672Z,99401.53
2022-10-22T10:22:19.324Z,99396.41
2022-10-22T10:25:31.663Z,99399.00
2022-10-22T10:28:01.188Z,99393.56
2022-10-22T10:30:27.867Z,99403.66
2022-10-22T10:33:29.126Z,99393.31
2022-10-22T10:36:02.456Z,99393.31
2022-10-22T10:38:43.898Z,99393.56
2022-10-22T10:41:17.846Z,99394.34
2022-10-22T10:43:50.243Z,99390.78
2022-10-22T10:46:19.702Z,99388.59
2022-10-22T10:48:50.064Z,99392.22
2022-10-22T10:51:38.845Z,99395.63
2022-10-22T10:54:30.133Z,99391.91
2022-10-22T10:57:00.751Z,99386.75
2022-10-22T10:59:59.768Z,99389.69
2022-10-22T11:03:11.147Z,99389.06
2022-10-22T11:05:43.431Z,99384.22
2022-10-22T11:08:26.506Z,99388.09
2022-10-22T11:10:55.372Z,99393.63
2022-10-22T11:13:30.777Z,99389.53
2022-10-22T11:16:12.520Z,99383.47
2022-10-22T11:18:43.390Z,99382.81
2022-10-22T11:21:21.567Z,99370.25
2022-10-22T11:24:08.256Z,99371.88
2022-10-22T11:27:02.033Z,99369.09
2022-10-22T11:29:36.203Z,99363.34
2022-10-22T11:32:03.271Z,99366.88
2022-10-22T11:34:44.476Z,99374.16
2022-10-22T11:37:11.861Z,99371.47
2022-10-22T11:39:42.814Z,99368.28
2022-10-22T11:42:19.332Z,99369.88
2022-10-22T11:44:47.924Z,99375.16
2022-10-22T11:47:29.803Z,99355.44
2022-10-22T11:50:18.468Z,99361.38
2022-10-22T11:53:00.562Z,99367.69
2022-10-22T11:55:48.487Z,99361.47
2022-10-22T11:58:39.104Z,99365.03
2022-10-22T12:01:08.318Z,99362.63
2022-10-22T12:03:34.756Z,99359.13
2022-10-22T12:06:12.004Z,99362.78
2022-10-22T12:08:56.766Z,99356.66
2022-10-22T12:26:06.750Z,99345.03
2022-10-22T12:28:40.720Z,99341.75
2022-10-22T12:31:39.014Z,99345.16
2022-10-22T12:34:05.893Z,99350.41
2022-10-22T12:36:36.389Z,99336.06
2022-10-22T12:39:09.019Z,99335.88
2022-10-22T12:41:37.180Z,99330.94
2022-10-22T12:44:05.122Z,99331.25
2022-10-22T12:46:33.493Z,99326.25
2022-10-22T12:49:05.651Z,99331.78
2022-10-22T12:54:07.315Z,99323.91
2022-10-22T12:56:35.278Z,99322.88
2022-10-22T12:59:11.479Z,99320.44
2022-10-22T13:01:39.673Z,99318.69
2022-10-22T13:04:18.741Z,99323.75
2022-10-22T13:06:50.786Z,99321.81
2022-10-22T13:09:25.385Z,99321.63
2022-10-22T13:12:04.521Z,99320.09
2022-10-22T13:14:37.444Z,99321.91
2022-10-22T13:17:15.613Z,99322.94
2022-10-22T13:19:44.160Z,99325.59
2022-10-22T13:22:33.309Z,99316.78
2022-10-22T13:25:20.203Z,99315.97
2022-10-22T14:05:35.239Z,99311.66
2022-10-22T14:08:02.279Z,99319.38
2022-10-22T14:10:28.800Z,99302.94
2022-10-22T14:12:55.363Z,99302.84
2022-10-22T14:15:24.151Z,99306.28
2022-10-22T14:17:54.628Z,99302.84
2022-10-22T14:20:32.032Z,99309.75
2022-10-22T14:23:05.588Z,99302.75
2022-10-22T14:25:32.207Z,99303.56
2022-10-22T14:27:58.707Z,99295.75
2022-10-22T14:30:26.413Z,99290.69
2022-10-22T14:32:53.097Z,99293.19
2022-10-22T14:35:22.289Z,99288.94
2022-10-22T14:37:48.875Z,99289.81
2022-10-22T14:40:18.263Z,99288.88
2022-10-22T14:42:46.471Z,99282.75
2022-10-22T14:45:17.555Z,99277.50
2022-10-22T14:47:44.206Z,99285.28
2022-10-22T14:50:11.271Z,99284.38
2022-10-22T14:52:38.087Z,99284.25
2022-10-22T14:55:05.102Z,99285.97
2022-10-22T14:57:31.631Z,99285.09
2022-10-22T14:59:58.172Z,99282.50
2022-10-22T15:02:26.070Z,99281.53
2022-10-22T15:04:52.656Z,99281.53
2022-10-22T15:07:20.282Z,99284.94
2022-10-22T15:09:46.891Z,99278.00
2022-10-22T15:12:13.393Z,99279.66
2022-10-22T15:14:42.846Z,99282.25
2022-10-22T15:17:09.387Z,99290.13
2022-10-22T15:19:35.953Z,99283.22
2022-10-22T15:22:02.496Z,99286.56
2022-10-22T15:24:29.012Z,99288.19
2022-10-22T15:26:55.555Z,99294.19
2022-10-22T15:29:22.266Z,99284.66
2022-10-22T15:31:49.611Z,99283.72
2022-10-22T15:34:24.799Z,99284.53
2022-10-22T15:36:51.616Z,99285.91
2022-10-22T15:39:18.202Z,99285.16
2022-10-22T15:41:44.969Z,99291.16
2022-10-22T15:44:16.528Z,99283.34
2022-10-22T15:46:43.493Z,99286.78
2022-10-22T15:49:09.972Z,99297.13
2022-10-22T15:51:36.518Z,99290.88
2022-10-22T15:54:06.432Z,99286.28
2022-10-22T15:56:35.860Z,99281.19
2022-10-22T15:59:04.103Z,99284.53
2022-10-22T16:01:32.116Z,99291.31
2022-10-22T16:04:04.944Z,99287.75
2022-10-22T16:06:39.886Z,99284.19
2022-10-22T16:09:09.902Z,99293.59
2022-10-22T16:11:37.199Z,99286.34
2022-10-22T16:14:04.410Z,99282.03
2022-10-22T16:16:32.874Z,99288.00
2022-10-22T16:18:59.753Z,99288.66
2022-10-22T16:21:26.856Z,99289.41
2022-10-22T16:23:53.337Z,99296.06
2022-10-22T16:26:20.066Z,99295.19
2022-10-22T16:28:47.643Z,99288.19
2022-10-22T16:31:16.420Z,99287.13
2022-10-22T16:33:46.483Z,99297.44
2022-10-22T16:36:18.656Z,99293.81
2022-10-22T16:38:45.692Z,99292.75
2022-10-22T16:41:19.033Z,99295.16
2022-10-22T16:43:48.378Z,99296.59
2022-10-22T16:46:20.270Z,99289.69
2022-10-22T16:48:48.169Z,99288.53
2022-10-22T16:51:17.625Z,99298.03
2022-10-22T16:53:44.161Z,99295.97
2022-10-22T16:56:15.785Z,99310.66
2022-10-22T16:58:50.961Z,99315.53
2022-10-22T17:01:18.692Z,99321.34
2022-10-22T17:03:45.476Z,99327.38
2022-10-22T17:06:12.075Z,99330.44
2022-10-22T17:08:39.444Z,99320.59
2022-10-22T17:11:10.611Z,99328.50
2022-10-22T17:13:37.980Z,99330.81
2022-10-22T17:16:06.275Z,99327.47
2022-10-22T17:18:33.633Z,99328.34
2022-10-22T17:21:00.179Z,99333.88
2022-10-22T17:23:28.605Z,99330.25
2022-10-22T17:26:06.224Z,99334.31
2022-10-22T17:28:33.738Z,99336.56
2022-10-22T17:31:03.166Z,99339.53
2022-10-22T17:33:30.050Z,99337.88
2022-10-22T17:35:56.529Z,99346.75
2022-10-22T17:38:23.199Z,99346.03
2022-10-22T17:40:49.748Z,99350.31
2022-10-22T17:43:16.277Z,99340.97
2022-10-22T17:45:42.782Z,99342.69
2022-10-22T17:48:09.413Z,99337.50
2022-10-22T17:50:40.379Z,99339.72
2022-10-22T17:53:06.879Z,99337.88
2022-10-22T17:55:34.791Z,99345.00
2022-10-22T17:58:01.944Z,99344.25
2022-10-22T18:00:32.361Z,99347.69
2022-10-22T18:03:00.801Z,99343.25
2022-10-22T18:05:27.862Z,99341.22
2022-10-22T18:07:55.931Z,99339.91
2022-10-22T18:10:23.145Z,99337.41
2022-10-22T18:12:49.716Z,99339.16
2022-10-22T18:15:16.413Z,99340.16
2022-10-22T18:17:43.079Z,99336.56
2022-10-22T18:20:10.341Z,99336.34
2022-10-22T18:22:36.828Z,99342.06
2022-10-22T18:25:03.631Z,99337.13
2022-10-22T18:27:30.486Z,99335.88
2022-10-22T18:29:57.048Z,99339.28
2022-10-22T18:32:23.602Z,99334.94
2022-10-22T18:34:50.089Z,99352.81
2022-10-22T18:37:16.765Z,99358.78
2022-10-22T18:39:43.639Z,99352.66
2022-10-22T18:42:10.152Z,99350.78
2022-10-22T18:44:37.225Z,99357.63
2022-10-22T18:47:03.835Z,99352.78
2022-10-22T18:49:30.507Z,99354.38
2022-10-22T18:51:57.273Z,99351.06
2022-10-22T18:54:24.606Z,99349.59
2022-10-22T18:57:00.547Z,99355.44
2022-10-22T18:59:29.186Z,99348.28
2022-10-22T19:01:59.311Z,99352.13
2022-10-22T19:04:30.995Z,99345.78
2022-10-22T19:06:57.564Z,99342.50
2022-10-22T19:09:25.064Z,99353.59
2022-10-22T19:11:51.543Z,99344.97
2022-10-22T19:14:19.507Z,99342.50
2022-10-22T19:16:49.594Z,99345.56
2022-10-22T19:19:18.651Z,99338.09
2022-10-22T19:21:45.939Z,99342.28
2022-10-22T19:24:14.387Z,99342.38
2022-10-22T19:26:41.620Z,99348.38
2022-10-22T19:29:08.729Z,99341.34
2022-10-22T19:31:35.306Z,99336.75
2022-10-22T19:34:02.094Z,99341.56
2022-10-22T19:36:30.047Z,99342.41
2022-10-22T19:38:57.101Z,99341.72
2022-10-22T19:41:25.621Z,99345.69
2022-10-22T19:43:53.815Z,99337.88
2022-10-22T19:46:21.824Z,99333.19
2022-10-22T19:48:49.779Z,99330.91
2022-10-22T19:51:21.517Z,99334.38
2022-10-22T19:53:49.083Z,99330.25
2022-10-22T19:56:20.290Z,99337.84
2022-10-22T19:58:46.800Z,99333.72
2022-10-22T20:01:15.784Z,99334.25
2022-10-22T20:03:42.612Z,99333.97
2022-10-22T20:06:10.786Z,99329.41
2022-10-22T20:08:38.281Z,99333.78
2022-10-22T20:11:07.080Z,99332.34
2022-10-22T20:13:35.154Z,99334.56
2022-10-22T20:16:01.767Z,99344.00
2022-10-22T20:18:28.261Z,99339.66
2022-10-22T20:20:54.801Z,99341.59
2022-10-22T20:23:21.468Z,99350.50
2022-10-22T20:25:48.244Z,99343.47
2022-10-22T20:28:15.369Z,99345.50
2022-10-22T20:30:46.118Z,99336.31
2022-10-22T20:33:13.189Z,99348.50
2022-10-22T20:35:39.734Z,99344.97
2022-10-22T20:38:07.836Z,99350.56
2022-10-22T20:40:34.671Z,99348.00
2022-10-22T20:43:01.618Z,99344.84
2022-10-22T20:45:28.557Z,99336.91
2022-10-22T20:48:01.912Z,99349.72
2022-10-22T20:50:31.965Z,99343.75
2022-10-22T20:52:58.982Z,99335.91
2022-10-22T20:55:25.773Z,99335.56
2022-10-22T20:57:52.275Z,99338.94
2022-10-22T21:00:18.941Z,99339.06
2022-10-22T21:02:45.460Z,99332.13
2022-10-22T21:05:11.913Z,99350.72
2022-10-22T21:07:38.427Z,99346.91
2022-10-22T21:10:05.426Z,99344.16
2022-10-22T21:12:31.890Z,99339.59
2022-10-22T21:14:58.392Z,99346.75
2022-10-22T21:17:24.891Z,99343.47
2022-10-22T21:19:51.359Z,99332.28
2022-10-22T21:22:17.811Z,99330.34
2022-10-22T21:24:44.270Z,99333.16
2022-10-22T21:27:10.715Z,99342.78
2022-10-22T21:29:37.175Z,99348.31
2022-10-22T21:32:03.753Z,99346.59
2022-10-22T21:34:31.188Z,99339.31
2022-10-22T21:36:58.982Z,99340.06
2022-10-22T21:39:25.488Z,99348.59
2022-10-22T21:41:52.011Z,99340.97
2022-10-22T21:44:18.585Z,99341.88
2022-10-22T21:46:45.089Z,99340.72
2022-10-22T21:49:12.236Z,99345.88
2022-10-22T21:51:39.300Z,99346.75
2022-10-22T21:54:06.187Z,99338.94
2022-10-22T21:56:34.793Z,99340.50
2022-10-22T21:59:02.720Z,99338.81
2022-10-22T22:01:29.263Z,99338.81
2022-10-22T22:03:55.809Z,99336.69
2022-10-22T22:06:24.218Z,99338.94
2022-10-22T22:08:54.458Z,99339.63
2022-10-22T22:11:24.282Z,99334.69
2022-10-22T22:13:52.038Z,99325.69
2022-10-22T22:16:27.038Z,99323.25
2022-10-22T22:18:55.587Z,99327.88
2022-10-22T22:21:22.128Z,99328.97
2022-10-22T22:23:49.842Z,99330.75
2022-10-22T22:26:22.052Z,99329.69
2022-10-22T22:28:50.487Z,99318.31
2022-10-22T22:31:19.261Z,99321.59
2022-10-22T22:33:46.067Z,99329.25
2022-10-22T22:36:12.580Z,99335.00
2022-10-22T22:38:39.882Z,99326.41
2022-10-22T22:41:07.444Z,99325.53
2022-10-22T22:43:34.644Z,99323.69
2022-10-22T22:46:10.122Z,99317.53
2022-10-22T22:48:36.651Z,99328.25
2022-10-22T22:51:04.701Z,99336.78
2022-10-22T22:53:31.829Z,99333.06
2022-10-22T22:56:04.360Z,99339.28
2022-10-22T22:58:31.069Z,99337.78
2022-10-22T23:01:28.608Z,99336.47
2022-10-22T23:03:59.166Z,99329.69
2022-10-22T23:06:27.935Z,99325.28
2022-10-22T23:08:55.036Z,99310.63
2022-10-22T23:11:23.242Z,99315.00
2022-10-22T23:13:53.950Z,99321.34
2022-10-22T23:16:21.572Z,99317.91
2022-10-22T23:18:49.397Z,99313.50
2022-10-22T23:21:21.475Z,99319.94
2022-10-22T23:23:53.755Z,99323.78
2022-10-22T23:26:22.693Z,99318.84
2022-10-22T23:28:49.405Z,99310.41
2022-10-22T23:31:18.199Z,99300.16
2022-10-22T23:33:45.372Z,99292.28
2022-10-22T23:36:12.457Z,99290.56
2022-10-22T23:38:39.815Z,99287.00
2022-10-22T23:41:06.877Z,99280.13
2022-10-22T23:43:37.757Z,99269.72
2022-10-22T23:46:05.787Z,99270.91
2022-10-22T23:48:32.351Z,99268.41
2022-10-22T23:51:07.348Z,99259.56
2022-10-22T23:53:34.116Z,99257.19
2022-10-22T23:56:17.455Z,99265.09
2022-10-22T23:58:44.539Z,99267.06
